sensor_id;sensor_type;location;lat;lon;timestamp;pressure;altitude;pressure_sealevel;temperature;humidity
82245;BME280;71849;50.096;14.458;2023-07-29T00:02:17;98928.19;;;21.05;64.88
82245;BME280;71849;50.096;14.458;2023-07-29T00:04:42;98929.84;;;21.06;64.96
82245;BME280;71849;50.096;14.458;2023-07-29T00:07:09;98934.84;;;21.04;65.09
82245;BME280;71849;50.096;14.458;2023-07-29T00:09:34;98938.25;;;21.01;64.89
82245;BME280;71849;50.096;14.458;2023-07-29T00:11:59;98938.03;;;20.98;65.40
82245;BME280;71849;50.096;14.458;2023-07-29T00:14:25;98936.63;;;21.00;65.55
82245;BME280;71849;50.096;14.458;2023-07-29T00:16:50;98933.53;;;21.02;65.17
82245;BME280;71849;50.096;14.458;2023-07-29T00:19:16;98929.44;;;20.99;65.27
82245;BME280;71849;50.096;14.458;2023-07-29T00:21:41;98922.25;;;20.98;65.09
82245;BME280;71849;50.096;14.458;2023-07-29T00:24:06;98928.63;;;20.99;65.43
82245;BME280;71849;50.096;14.458;2023-07-29T00:26:32;98931.50;;;20.94;65.60
82245;BME280;71849;50.096;14.458;2023-07-29T00:28:58;98923.50;;;20.92;65.75
82245;BME280;71849;50.096;14.458;2023-07-29T00:31:23;98923.00;;;20.90;65.94
82245;BME280;71849;50.096;14.458;2023-07-29T00:33:49;98923.94;;;20.86;66.17
82245;BME280;71849;50.096;14.458;2023-07-29T00:36:15;98922.09;;;20.81;66.33
82245;BME280;71849;50.096;14.458;2023-07-29T00:38:40;98925.06;;;20.85;66.29
82245;BME280;71849;50.096;14.458;2023-07-29T00:41:06;98921.47;;;20.84;66.75
82245;BME280;71849;50.096;14.458;2023-07-29T00:43:32;98924.56;;;20.83;66.71
82245;BME280;71849;50.096;14.458;2023-07-29T00:45:57;98920.16;;;20.82;66.62
82245;BME280;71849;50.096;14.458;2023-07-29T00:48:24;98915.56;;;20.77;66.55
82245;BME280;71849;50.096;14.458;2023-07-29T00:50:51;98914.22;;;20.75;66.91
82245;BME280;71849;50.096;14.458;2023-07-29T00:53:16;98910.34;;;20.76;66.75
82245;BME280;71849;50.096;14.458;2023-07-29T00:55:42;98913.13;;;20.76;67.01
82245;BME280;71849;50.096;14.458;2023-07-29T00:58:08;98918.94;;;20.74;67.21
82245;BME280;71849;50.096;14.458;2023-07-29T01:00:33;98916.28;;;20.69;67.41
82245;BME280;71849;50.096;14.458;2023-07-29T01:03:02;98917.94;;;20.70;67.57
82245;BME280;71849;50.096;14.458;2023-07-29T01:05:32;98926.72;;;20.72;67.19
82245;BME280;71849;50.096;14.458;2023-07-29T01:08:07;98936.69;;;20.73;67.31
82245;BME280;71849;50.096;14.458;2023-07-29T01:11:01;98933.59;;;20.75;67.17
82245;BME280;71849;50.096;14.458;2023-07-29T01:13:48;98929.91;;;20.79;67.22
82245;BME280;71849;50.096;14.458;2023-07-29T01:16:19;98926.94;;;20.76;67.48
82245;BME280;71849;50.096;14.458;2023-07-29T01:18:47;98930.31;;;20.73;67.45
82245;BME280;71849;50.096;14.458;2023-07-29T01:21:15;98930.53;;;20.76;67.24
82245;BME280;71849;50.096;14.458;2023-07-29T01:23:42;98933.91;;;20.73;67.33
82245;BME280;71849;50.096;14.458;2023-07-29T01:26:07;98925.63;;;20.73;67.32
82245;BME280;71849;50.096;14.458;2023-07-29T01:28:33;98922.53;;;20.75;67.58
82245;BME280;71849;50.096;14.458;2023-07-29T01:31:15;98921.19;;;20.72;67.76
82245;BME280;71849;50.096;14.458;2023-07-29T01:33:55;98922.84;;;20.73;67.92
82245;BME280;71849;50.096;14.458;2023-07-29T01:36:22;98920.09;;;20.73;67.89
82245;BME280;71849;50.096;14.458;2023-07-29T01:38:49;98921.50;;;20.70;67.90
82245;BME280;71849;50.096;14.458;2023-07-29T01:41:16;98928.19;;;20.69;68.15
82245;BME280;71849;50.096;14.458;2023-07-29T01:43:43;98929.63;;;20.67;68.14
82245;BME280;71849;50.096;14.458;2023-07-29T01:46:10;98922.66;;;20.69;68.26
82245;BME280;71849;50.096;14.458;2023-07-29T01:48:37;98926.84;;;20.67;68.18
82245;BME280;71849;50.096;14.458;2023-07-29T01:51:03;98927.44;;;20.64;68.38
82245;BME280;71849;50.096;14.458;2023-07-29T01:53:31;98928.06;;;20.61;68.33
82245;BME280;71849;50.096;14.458;2023-07-29T01:55:56;98924.31;;;20.57;68.46
82245;BME280;71849;50.096;14.458;2023-07-29T01:58:22;98939.03;;;20.52;68.90
82245;BME280;71849;50.096;14.458;2023-07-29T02:00:57;98932.69;;;20.52;68.73
82245;BME280;71849;50.096;14.458;2023-07-29T02:03:23;98929.63;;;20.53;68.75
82245;BME280;71849;50.096;14.458;2023-07-29T02:05:48;98935.78;;;20.50;68.50
82245;BME280;71849;50.096;14.458;2023-07-29T02:10:46;98944.34;;;20.49;68.66
82245;BME280;71849;50.096;14.458;2023-07-29T02:13:14;98938.03;;;20.48;68.75
82245;BME280;71849;50.096;14.458;2023-07-29T02:15:39;98935.06;;;20.45;68.79
82245;BME280;71849;50.096;14.458;2023-07-29T02:18:05;98929.13;;;20.38;68.94
82245;BME280;71849;50.096;14.458;2023-07-29T02:20:31;98933.81;;;20.37;69.23
82245;BME280;71849;50.096;14.458;2023-07-29T02:22:57;98932.50;;;20.35;69.18
82245;BME280;71849;50.096;14.458;2023-07-29T02:25:22;98924.19;;;20.35;69.24
82245;BME280;71849;50.096;14.458;2023-07-29T02:27:47;98924.00;;;20.31;69.38
82245;BME280;71849;50.096;14.458;2023-07-29T02:30:13;98926.53;;;20.28;69.49
82245;BME280;71849;50.096;14.458;2023-07-29T02:32:38;98924.38;;;20.25;69.67
82245;BME280;71849;50.096;14.458;2023-07-29T02:35:04;98913.94;;;20.22;69.90
82245;BME280;71849;50.096;14.458;2023-07-29T02:37:30;98925.59;;;20.18;69.93
82245;BME280;71849;50.096;14.458;2023-07-29T02:39:55;98921.50;;;20.16;69.85
82245;BME280;71849;50.096;14.458;2023-07-29T02:42:21;98923.16;;;20.17;69.88
82245;BME280;71849;50.096;14.458;2023-07-29T02:44:46;98926.53;;;20.14;69.68
82245;BME280;71849;50.096;14.458;2023-07-29T02:47:12;98925.69;;;20.13;69.84
82245;BME280;71849;50.096;14.458;2023-07-29T02:49:37;98910.56;;;20.11;69.77
82245;BME280;71849;50.096;14.458;2023-07-29T02:52:03;98922.44;;;20.11;69.87
82245;BME280;71849;50.096;14.458;2023-07-29T02:54:28;98924.06;;;20.12;69.88
82245;BME280;71849;50.096;14.458;2023-07-29T02:56:54;98921.41;;;20.07;69.54
82245;BME280;71849;50.096;14.458;2023-07-29T02:59:19;98924.66;;;20.09;69.87
82245;BME280;71849;50.096;14.458;2023-07-29T03:01:46;98926.63;;;20.09;69.91
82245;BME280;71849;50.096;14.458;2023-07-29T03:04:12;98927.44;;;20.09;69.59
82245;BME280;71849;50.096;14.458;2023-07-29T03:06:40;98932.44;;;20.07;69.91
82245;BME280;71849;50.096;14.458;2023-07-29T03:09:06;98932.25;;;20.04;69.69
82245;BME280;71849;50.096;14.458;2023-07-29T03:11:31;98945.53;;;20.02;69.96
82245;BME280;71849;50.096;14.458;2023-07-29T03:13:57;98946.66;;;20.01;69.44
82245;BME280;71849;50.096;14.458;2023-07-29T03:16:22;98943.59;;;20.02;69.76
82245;BME280;71849;50.096;14.458;2023-07-29T03:18:48;98940.63;;;19.99;69.85
82245;BME280;71849;50.096;14.458;2023-07-29T03:21:14;98951.34;;;20.00;70.22
82245;BME280;71849;50.096;14.458;2023-07-29T03:23:40;98954.13;;;20.00;70.14
82245;BME280;71849;50.096;14.458;2023-07-29T03:26:06;98952.72;;;20.03;69.91
82245;BME280;71849;50.096;14.458;2023-07-29T03:28:37;98944.50;;;19.98;69.91
82245;BME280;71849;50.096;14.458;2023-07-29T03:31:03;98949.53;;;19.96;69.85
82245;BME280;71849;50.096;14.458;2023-07-29T03:33:28;98954.56;;;19.94;70.10
82245;BME280;71849;50.096;14.458;2023-07-29T03:35:54;98956.47;;;19.93;70.04
82245;BME280;71849;50.096;14.458;2023-07-29T03:38:20;98949.63;;;19.91;70.29
82245;BME280;71849;50.096;14.458;2023-07-29T03:40:45;98945.50;;;19.88;70.44
82245;BME280;71849;50.096;14.458;2023-07-29T03:43:11;98947.75;;;19.86;70.50
82245;BME280;71849;50.096;14.458;2023-07-29T03:45:37;98946.94;;;19.86;70.43
82245;BME280;71849;50.096;14.458;2023-07-29T03:48:04;98940.53;;;19.90;70.39
82245;BME280;71849;50.096;14.458;2023-07-29T03:50:29;98934.69;;;19.92;70.37
82245;BME280;71849;50.096;14.458;2023-07-29T03:52:55;98933.56;;;19.93;70.40
82245;BME280;71849;50.096;14.458;2023-07-29T03:55:21;98932.88;;;20.14;69.57
82245;BME280;71849;50.096;14.458;2023-07-29T03:57:46;98939.66;;;20.49;68.07
82245;BME280;71849;50.096;14.458;2023-07-29T04:00:12;98946.31;;;20.48;68.23
82245;BME280;71849;50.096;14.458;2023-07-29T04:02:38;98942.50;;;20.31;68.85
82245;BME280;71849;50.096;14.458;2023-07-29T04:05:04;98942.00;;;20.69;67.54
82245;BME280;71849;50.096;14.458;2023-07-29T04:07:30;98944.81;;;21.63;64.30
82245;BME280;71849;50.096;14.458;2023-07-29T04:09:55;98945.03;;;22.28;61.99
82245;BME280;71849;50.096;14.458;2023-07-29T04:12:22;98944.13;;;22.50;61.09
82245;BME280;71849;50.096;14.458;2023-07-29T04:14:48;98944.63;;;23.09;59.18
82245;BME280;71849;50.096;14.458;2023-07-29T04:17:13;98945.38;;;22.75;59.82
82245;BME280;71849;50.096;14.458;2023-07-29T04:19:39;98949.19;;;21.64;63.64
82245;BME280;71849;50.096;14.458;2023-07-29T04:22:04;98951.66;;;21.08;65.73
82245;BME280;71849;50.096;14.458;2023-07-29T04:24:30;98951.91;;;20.84;66.41
82245;BME280;71849;50.096;14.458;2023-07-29T04:26:55;98945.28;;;20.71;67.38
82245;BME280;71849;50.096;14.458;2023-07-29T04:29:21;98955.53;;;20.57;67.90
82245;BME280;71849;50.096;14.458;2023-07-29T04:31:48;98960.88;;;20.54;68.06
82245;BME280;71849;50.096;14.458;2023-07-29T04:34:13;98968.34;;;20.53;68.17
82245;BME280;71849;50.096;14.458;2023-07-29T04:36:39;98959.63;;;20.60;67.81
82245;BME280;71849;50.096;14.458;2023-07-29T04:39:05;98955.63;;;20.66;67.45
82245;BME280;71849;50.096;14.458;2023-07-29T04:41:31;98962.28;;;20.65;67.58
82245;BME280;71849;50.096;14.458;2023-07-29T04:43:56;98959.50;;;20.79;67.10
82245;BME280;71849;50.096;14.458;2023-07-29T04:46:24;98959.09;;;20.85;66.86
82245;BME280;71849;50.096;14.458;2023-07-29T04:48:50;98955.72;;;20.88;67.13
82245;BME280;71849;50.096;14.458;2023-07-29T04:51:16;98968.31;;;20.94;66.76
82245;BME280;71849;50.096;14.458;2023-07-29T04:53:41;98958.97;;;20.90;66.64
82245;BME280;71849;50.096;14.458;2023-07-29T04:56:06;98963.59;;;20.81;66.99
82245;BME280;71849;50.096;14.458;2023-07-29T04:58:32;98962.78;;;20.81;67.28
82245;BME280;71849;50.096;14.458;2023-07-29T05:01:01;98964.09;;;20.83;66.89
82245;BME280;71849;50.096;14.458;2023-07-29T05:03:26;98970.03;;;20.90;67.03
82245;BME280;71849;50.096;14.458;2023-07-29T05:05:52;98957.84;;;20.91;66.75
82245;BME280;71849;50.096;14.458;2023-07-29T05:08:19;98961.00;;;20.98;66.47
82245;BME280;71849;50.096;14.458;2023-07-29T05:10:48;98969.69;;;21.05;66.16
82245;BME280;71849;50.096;14.458;2023-07-29T05:13:14;98965.91;;;21.15;65.83
82245;BME280;71849;50.096;14.458;2023-07-29T05:15:40;98968.56;;;21.20;65.86
82245;BME280;71849;50.096;14.458;2023-07-29T05:18:05;98977.28;;;21.13;65.82
82245;BME280;71849;50.096;14.458;2023-07-29T05:20:30;98977.19;;;21.18;65.74
82245;BME280;71849;50.096;14.458;2023-07-29T05:22:56;98973.91;;;21.16;65.77
82245;BME280;71849;50.096;14.458;2023-07-29T05:25:21;98966.94;;;21.05;65.95
82245;BME280;71849;50.096;14.458;2023-07-29T05:27:47;98971.25;;;20.98;66.16
82245;BME280;71849;50.096;14.458;2023-07-29T05:30:12;98963.34;;;21.05;66.38
82245;BME280;71849;50.096;14.458;2023-07-29T05:32:38;98966.09;;;21.05;66.15
82245;BME280;71849;50.096;14.458;2023-07-29T05:35:03;98961.31;;;21.10;66.31
82245;BME280;71849;50.096;14.458;2023-07-29T05:37:29;98966.13;;;21.18;65.99
82245;BME280;71849;50.096;14.458;2023-07-29T05:39:54;98963.84;;;21.20;65.65
82245;BME280;71849;50.096;14.458;2023-07-29T05:42:20;98971.72;;;21.27;65.42
82245;BME280;71849;50.096;14.458;2023-07-29T05:44:45;98966.19;;;21.27;65.53
82245;BME280;71849;50.096;14.458;2023-07-29T05:47:10;98963.50;;;21.36;64.97
82245;BME280;71849;50.096;14.458;2023-07-29T05:49:36;98955.84;;;21.19;65.89
82245;BME280;71849;50.096;14.458;2023-07-29T05:52:01;98954.31;;;21.13;66.19
82245;BME280;71849;50.096;14.458;2023-07-29T05:54:27;98956.28;;;21.12;66.33
82245;BME280;71849;50.096;14.458;2023-07-29T05:56:53;98963.41;;;21.27;65.86
82245;BME280;71849;50.096;14.458;2023-07-29T05:59:18;98963.16;;;21.37;65.59
82245;BME280;71849;50.096;14.458;2023-07-29T06:01:44;98962.75;;;21.66;64.60
82245;BME280;71849;50.096;14.458;2023-07-29T06:04:09;98958.56;;;21.77;64.08
82245;BME280;71849;50.096;14.458;2023-07-29T06:06:35;98957.78;;;22.07;63.19
82245;BME280;71849;50.096;14.458;2023-07-29T06:09:00;98954.75;;;22.17;62.80
82245;BME280;71849;50.096;14.458;2023-07-29T06:11:26;98951.09;;;22.30;62.01
82245;BME280;71849;50.096;14.458;2023-07-29T06:13:51;98952.91;;;22.44;61.67
82245;BME280;71849;50.096;14.458;2023-07-29T06:16:16;98951.69;;;22.58;60.92
82245;BME280;71849;50.096;14.458;2023-07-29T06:18:42;98952.03;;;22.65;60.31
82245;BME280;71849;50.096;14.458;2023-07-29T06:21:07;98953.72;;;22.83;59.55
82245;BME280;71849;50.096;14.458;2023-07-29T06:23:34;98944.09;;;22.98;59.24
82245;BME280;71849;50.096;14.458;2023-07-29T06:25:59;98946.03;;;22.80;59.05
82245;BME280;71849;50.096;14.458;2023-07-29T06:28:26;98948.94;;;22.67;59.34
82245;BME280;71849;50.096;14.458;2023-07-29T06:30:54;98939.75;;;22.49;59.57
82245;BME280;71849;50.096;14.458;2023-07-29T06:33:20;98940.03;;;22.39;59.87
82245;BME280;71849;50.096;14.458;2023-07-29T06:35:45;98940.66;;;22.36;60.34
82245;BME280;71849;50.096;14.458;2023-07-29T06:38:10;98937.91;;;22.45;59.69
82245;BME280;71849;50.096;14.458;2023-07-29T06:40:36;98935.81;;;22.50;59.17
82245;BME280;71849;50.096;14.458;2023-07-29T06:43:01;98937.34;;;22.65;58.66
82245;BME280;71849;50.096;14.458;2023-07-29T06:45:27;98935.50;;;22.52;59.23
82245;BME280;71849;50.096;14.458;2023-07-29T06:47:52;98927.66;;;22.54;59.09
82245;BME280;71849;50.096;14.458;2023-07-29T06:50:18;98929.63;;;22.53;59.26
82245;BME280;71849;50.096;14.458;2023-07-29T06:52:43;98944.53;;;22.66;59.01
82245;BME280;71849;50.096;14.458;2023-07-29T06:55:08;98939.13;;;22.61;59.25
82245;BME280;71849;50.096;14.458;2023-07-29T06:57:34;98941.31;;;22.90;58.70
82245;BME280;71849;50.096;14.458;2023-07-29T07:00:01;98944.31;;;23.19;58.25
82245;BME280;71849;50.096;14.458;2023-07-29T07:02:26;98935.03;;;23.41;57.40
82245;BME280;71849;50.096;14.458;2023-07-29T07:04:52;98939.56;;;23.36;57.60
82245;BME280;71849;50.096;14.458;2023-07-29T07:07:17;98944.28;;;23.36;57.24
82245;BME280;71849;50.096;14.458;2023-07-29T07:09:43;98942.31;;;23.11;56.40
82245;BME280;71849;50.096;14.458;2023-07-29T07:12:08;98942.34;;;23.28;56.24
82245;BME280;71849;50.096;14.458;2023-07-29T07:14:34;98942.81;;;23.38;56.01
82245;BME280;71849;50.096;14.458;2023-07-29T07:16:59;98945.25;;;23.23;56.59
82245;BME280;71849;50.096;14.458;2023-07-29T07:19:25;98937.09;;;23.09;57.29
82245;BME280;71849;50.096;14.458;2023-07-29T07:21:51;98936.47;;;23.12;57.21
82245;BME280;71849;50.096;14.458;2023-07-29T07:24:16;98939.41;;;23.33;56.81
82245;BME280;71849;50.096;14.458;2023-07-29T07:26:42;98939.09;;;23.52;56.62
82245;BME280;71849;50.096;14.458;2023-07-29T07:29:07;98936.25;;;23.77;55.67
82245;BME280;71849;50.096;14.458;2023-07-29T07:31:33;98930.75;;;23.60;55.78
82245;BME280;71849;50.096;14.458;2023-07-29T07:33:59;98928.09;;;23.81;55.01
82245;BME280;71849;50.096;14.458;2023-07-29T07:36:27;98926.97;;;23.73;55.35
82245;BME280;71849;50.096;14.458;2023-07-29T07:38:52;98921.53;;;23.94;54.86
82245;BME280;71849;50.096;14.458;2023-07-29T07:41:18;98917.53;;;24.21;54.38
82245;BME280;71849;50.096;14.458;2023-07-29T07:43:43;98918.34;;;24.21;54.15
82245;BME280;71849;50.096;14.458;2023-07-29T07:46:08;98920.31;;;24.21;54.00
82245;BME280;71849;50.096;14.458;2023-07-29T07:48:34;98924.22;;;24.20;54.17
82245;BME280;71849;50.096;14.458;2023-07-29T07:50:59;98916.28;;;23.92;54.76
82245;BME280;71849;50.096;14.458;2023-07-29T07:53:24;98911.09;;;23.82;55.30
82245;BME280;71849;50.096;14.458;2023-07-29T07:55:53;98905.72;;;23.69;55.94
82245;BME280;71849;50.096;14.458;2023-07-29T07:58:18;98900.47;;;23.76;55.65
82245;BME280;71849;50.096;14.458;2023-07-29T08:00:44;98903.22;;;23.84;55.28
82245;BME280;71849;50.096;14.458;2023-07-29T08:03:09;98901.13;;;23.81;55.61
82245;BME280;71849;50.096;14.458;2023-07-29T08:05:34;98897.97;;;24.00;55.15
82245;BME280;71849;50.096;14.458;2023-07-29T08:08:00;98904.16;;;24.06;54.61
82245;BME280;71849;50.096;14.458;2023-07-29T08:10:25;98895.84;;;24.35;54.17
82245;BME280;71849;50.096;14.458;2023-07-29T08:12:51;98897.94;;;24.76;52.57
82245;BME280;71849;50.096;14.458;2023-07-29T08:15:16;98899.16;;;24.95;51.88
82245;BME280;71849;50.096;14.458;2023-07-29T08:17:42;98886.44;;;25.07;51.11
82245;BME280;71849;50.096;14.458;2023-07-29T08:20:07;98880.75;;;25.36;49.25
82245;BME280;71849;50.096;14.458;2023-07-29T08:22:33;98880.25;;;25.22;49.52
82245;BME280;71849;50.096;14.458;2023-07-29T08:24:58;98873.78;;;25.30;49.36
82245;BME280;71849;50.096;14.458;2023-07-29T08:27:24;98875.50;;;25.22;49.98
82245;BME280;71849;50.096;14.458;2023-07-29T08:29:53;98878.91;;;25.07;50.19
82245;BME280;71849;50.096;14.458;2023-07-29T08:32:19;98885.13;;;25.25;50.38
82245;BME280;71849;50.096;14.458;2023-07-29T08:34:44;98884.91;;;25.50;49.64
82245;BME280;71849;50.096;14.458;2023-07-29T08:37:09;98880.94;;;25.84;48.19
82245;BME280;71849;50.096;14.458;2023-07-29T08:39:35;98876.78;;;25.90;47.51
82245;BME280;71849;50.096;14.458;2023-07-29T08:42:03;98882.13;;;25.83;47.82
82245;BME280;71849;50.096;14.458;2023-07-29T08:44:40;98873.38;;;25.73;47.83
82245;BME280;71849;50.096;14.458;2023-07-29T08:47:06;98877.94;;;25.77;47.88
82245;BME280;71849;50.096;14.458;2023-07-29T08:49:32;98877.31;;;25.72;47.29
82245;BME280;71849;50.096;14.458;2023-07-29T08:51:59;98872.22;;;25.41;47.81
82245;BME280;71849;50.096;14.458;2023-07-29T08:54:24;98883.13;;;25.46;47.58
82245;BME280;71849;50.096;14.458;2023-07-29T08:56:50;98879.38;;;25.63;47.76
82245;BME280;71849;50.096;14.458;2023-07-29T08:59:16;98876.81;;;26.15;46.83
82245;BME280;71849;50.096;14.458;2023-07-29T09:01:43;98867.88;;;26.09;46.65
82245;BME280;71849;50.096;14.458;2023-07-29T09:04:08;98877.28;;;26.04;47.20
82245;BME280;71849;50.096;14.458;2023-07-29T09:06:35;98881.69;;;26.05;46.70
82245;BME280;71849;50.096;14.458;2023-07-29T09:09:01;98886.78;;;25.91;47.15
82245;BME280;71849;50.096;14.458;2023-07-29T09:11:30;98885.66;;;25.72;48.02
82245;BME280;71849;50.096;14.458;2023-07-29T09:13:59;98888.59;;;25.75;48.18
82245;BME280;71849;50.096;14.458;2023-07-29T09:16:25;98883.81;;;25.64;48.28
82245;BME280;71849;50.096;14.458;2023-07-29T09:18:53;98870.91;;;25.59;48.70
82245;BME280;71849;50.096;14.458;2023-07-29T09:21:24;98868.56;;;25.49;49.03
82245;BME280;71849;50.096;14.458;2023-07-29T09:23:57;98877.09;;;25.44;49.37
82245;BME280;71849;50.096;14.458;2023-07-29T09:26:28;98879.88;;;25.44;49.72
82245;BME280;71849;50.096;14.458;2023-07-29T09:28:58;98887.69;;;25.30;49.52
82245;BME280;71849;50.096;14.458;2023-07-29T09:31:25;98889.06;;;25.24;49.32
82245;BME280;71849;50.096;14.458;2023-07-29T09:34:02;98880.81;;;25.48;48.58
82245;BME280;71849;50.096;14.458;2023-07-29T09:36:30;98870.41;;;25.57;48.19
82245;BME280;71849;50.096;14.458;2023-07-29T09:38:57;98867.56;;;25.78;47.25
82245;BME280;71849;50.096;14.458;2023-07-29T09:41:28;98876.63;;;25.75;47.07
82245;BME280;71849;50.096;14.458;2023-07-29T09:43:58;98876.47;;;26.04;46.33
82245;BME280;71849;50.096;14.458;2023-07-29T09:46:25;98871.00;;;26.07;45.88
82245;BME280;71849;50.096;14.458;2023-07-29T09:48:56;98885.53;;;26.13;45.70
82245;BME280;71849;50.096;14.458;2023-07-29T09:51:21;98873.72;;;26.52;45.16
82245;BME280;71849;50.096;14.458;2023-07-29T09:53:48;98867.19;;;26.60;44.17
82245;BME280;71849;50.096;14.458;2023-07-29T09:56:14;98871.84;;;26.69;44.46
82245;BME280;71849;50.096;14.458;2023-07-29T09:58:45;98875.09;;;26.71;44.67
82245;BME280;71849;50.096;14.458;2023-07-29T10:01:11;98878.03;;;26.62;44.80
82245;BME280;71849;50.096;14.458;2023-07-29T10:03:37;98881.16;;;26.60;44.93
82245;BME280;71849;50.096;14.458;2023-07-29T10:06:04;98874.53;;;26.53;45.29
82245;BME280;71849;50.096;14.458;2023-07-29T10:08:30;98879.19;;;26.61;44.26
82245;BME280;71849;50.096;14.458;2023-07-29T10:11:06;98869.25;;;26.76;44.16
82245;BME280;71849;50.096;14.458;2023-07-29T10:13:32;98870.78;;;26.73;44.09
82245;BME280;71849;50.096;14.458;2023-07-29T10:15:58;98870.19;;;26.92;43.35
82245;BME280;71849;50.096;14.458;2023-07-29T10:18:24;98866.94;;;27.02;43.31
82245;BME280;71849;50.096;14.458;2023-07-29T10:20:59;98853.81;;;27.18;42.82
82245;BME280;71849;50.096;14.458;2023-07-29T10:23:26;98844.81;;;27.25;42.71
82245;BME280;71849;50.096;14.458;2023-07-29T10:26:03;98847.78;;;27.16;42.57
82245;BME280;71849;50.096;14.458;2023-07-29T10:28:32;98849.91;;;27.47;42.13
82245;BME280;71849;50.096;14.458;2023-07-29T10:30:59;98843.84;;;27.45;42.15
82245;BME280;71849;50.096;14.458;2023-07-29T10:33:25;98846.53;;;27.41;42.44
82245;BME280;71849;50.096;14.458;2023-07-29T10:35:53;98841.97;;;27.37;42.29
82245;BME280;71849;50.096;14.458;2023-07-29T10:38:22;98837.38;;;27.29;42.66
82245;BME280;71849;50.096;14.458;2023-07-29T10:40:54;98830.97;;;27.28;42.46
82245;BME280;71849;50.096;14.458;2023-07-29T10:43:35;98834.19;;;27.14;43.23
82245;BME280;71849;50.096;14.458;2023-07-29T10:46:20;98837.22;;;27.09;43.77
82245;BME280;71849;50.096;14.458;2023-07-29T10:48:54;98826.53;;;26.99;43.16
82245;BME280;71849;50.096;14.458;2023-07-29T10:51:29;98820.53;;;26.85;44.22
82245;BME280;71849;50.096;14.458;2023-07-29T10:54:03;98823.69;;;26.72;43.55
82245;BME280;71849;50.096;14.458;2023-07-29T10:56:30;98813.59;;;26.55;44.01
82245;BME280;71849;50.096;14.458;2023-07-29T10:58:58;98808.00;;;26.55;44.70
82245;BME280;71849;50.096;14.458;2023-07-29T11:01:30;98805.91;;;26.52;44.11
82245;BME280;71849;50.096;14.458;2023-07-29T11:12:36;98801.75;;;26.34;43.64
82245;BME280;71849;50.096;14.458;2023-07-29T11:15:16;98812.06;;;26.09;43.84
82245;BME280;71849;50.096;14.458;2023-07-29T11:17:46;98842.56;;;24.54;50.24
82245;BME280;71849;50.096;14.458;2023-07-29T11:20:13;98872.59;;;23.21;57.36
82245;BME280;71849;50.096;14.458;2023-07-29T11:22:39;98873.00;;;22.46;63.43
82245;BME280;71849;50.096;14.458;2023-07-29T11:25:06;98894.03;;;21.99;65.50
82245;BME280;71849;50.096;14.458;2023-07-29T11:27:32;98905.34;;;21.58;67.85
82245;BME280;71849;50.096;14.458;2023-07-29T11:29:59;98905.13;;;21.10;71.41
82245;BME280;71849;50.096;14.458;2023-07-29T11:32:25;98902.25;;;21.01;70.39
82245;BME280;71849;50.096;14.458;2023-07-29T11:34:51;98889.44;;;21.05;71.87
82245;BME280;71849;50.096;14.458;2023-07-29T11:37:17;98894.16;;;21.05;71.45
82245;BME280;71849;50.096;14.458;2023-07-29T11:39:44;98893.53;;;21.08;73.61
82245;BME280;71849;50.096;14.458;2023-07-29T11:42:19;98894.78;;;21.02;72.71
82245;BME280;71849;50.096;14.458;2023-07-29T11:44:45;98898.81;;;21.09;75.01
82245;BME280;71849;50.096;14.458;2023-07-29T11:47:11;98895.91;;;21.14;73.84
82245;BME280;71849;50.096;14.458;2023-07-29T11:49:40;98886.09;;;21.08;74.57
82245;BME280;71849;50.096;14.458;2023-07-29T11:52:10;98884.75;;;21.06;75.14
82245;BME280;71849;50.096;14.458;2023-07-29T11:54:39;98883.84;;;20.97;77.02
82245;BME280;71849;50.096;14.458;2023-07-29T11:57:08;98882.78;;;21.06;76.79
82245;BME280;71849;50.096;14.458;2023-07-29T11:59:34;98886.34;;;21.20;74.91
82245;BME280;71849;50.096;14.458;2023-07-29T12:02:01;98865.88;;;21.08;76.48
82245;BME280;71849;50.096;14.458;2023-07-29T12:04:29;98848.63;;;20.89;75.19
82245;BME280;71849;50.096;14.458;2023-07-29T12:06:55;98864.41;;;20.88;76.38
82245;BME280;71849;50.096;14.458;2023-07-29T12:09:21;98855.75;;;21.03;77.39
82245;BME280;71849;50.096;14.458;2023-07-29T12:11:46;98868.22;;;21.14;76.12
82245;BME280;71849;50.096;14.458;2023-07-29T12:14:16;98873.59;;;20.97;74.63
82245;BME280;71849;50.096;14.458;2023-07-29T12:16:43;98867.56;;;20.95;75.10
82245;BME280;71849;50.096;14.458;2023-07-29T12:19:08;98865.22;;;20.89;75.47
82245;BME280;71849;50.096;14.458;2023-07-29T12:21:36;98850.94;;;20.95;73.64
82245;BME280;71849;50.096;14.458;2023-07-29T12:24:02;98856.28;;;20.92;73.84
82245;BME280;71849;50.096;14.458;2023-07-29T12:26:29;98851.16;;;20.99;73.88
82245;BME280;71849;50.096;14.458;2023-07-29T12:28:55;98857.81;;;20.98;72.71
82245;BME280;71849;50.096;14.458;2023-07-29T12:31:21;98851.81;;;21.18;72.84
82245;BME280;71849;50.096;14.458;2023-07-29T12:33:57;98856.09;;;21.24;72.92
82245;BME280;71849;50.096;14.458;2023-07-29T12:39:19;98841.03;;;21.39;72.78
82245;BME280;71849;50.096;14.458;2023-07-29T12:41:47;98845.06;;;21.55;71.50
82245;BME280;71849;50.096;14.458;2023-07-29T12:44:13;98847.56;;;21.73;71.97
82245;BME280;71849;50.096;14.458;2023-07-29T12:46:39;98854.50;;;21.85;69.05
82245;BME280;71849;50.096;14.458;2023-07-29T12:49:04;98845.34;;;21.84;69.78
82245;BME280;71849;50.096;14.458;2023-07-29T12:51:33;98850.50;;;21.99;68.87
82245;BME280;71849;50.096;14.458;2023-07-29T12:53:59;98840.72;;;22.02;69.62
82245;BME280;71849;50.096;14.458;2023-07-29T12:56:27;98837.97;;;22.10;69.04
82245;BME280;71849;50.096;14.458;2023-07-29T12:59:00;98836.41;;;22.26;68.67
82245;BME280;71849;50.096;14.458;2023-07-29T13:01:27;98835.13;;;22.41;67.79
82245;BME280;71849;50.096;14.458;2023-07-29T13:03:53;98838.25;;;22.40;66.95